Time;durP1;ratioP1;P1;durP2;ratioP2;P2;SDS_P1;SDS_P2;PMS_P1;PMS_P2;Temp;Humidity;BMP_temperature;BMP_pressure;BME280_temperature;BME280_humidity;BME280_pressure;Samples;Min_cycle;Max_cycle;Signal;HPM_P1;HPM_P2
2022/02/06 00:01:49;;;;;;;;;;;-1.00;99.90;;;;;;4192082;28;20198;-55
2022/02/06 00:03:50;;;;;;;;;;;-1.00;99.90;;;;;;4192021;28;19930;-54
2022/02/06 00:05:51;;;;;;;;;;;-1.00;99.90;;;;;;4191989;28;19974;-49
2022/02/06 00:07:52;;;;;;;;;;;-1.00;99.90;;;;;;4191470;28;19920;-56
2022/02/06 00:09:53;;;;;;;;;;;-1.00;99.90;;;;;;4191402;28;19916;-55
2022/02/06 00:11:54;;;;;;;;;;;-1.10;99.90;;;;;;4194884;28;19912;-56
2022/02/06 00:13:56;;;;;;;;;;;-1.10;99.90;;;;;;4190489;28;19962;-55
2022/02/06 00:15:57;;;;;;;;;;;-1.20;99.90;;;;;;4192042;28;19962;-53
2022/02/06 00:17:58;;;;;;;;;;;-1.20;99.90;;;;;;4188898;28;19920;-57
2022/02/06 00:19:59;;;;;;;;;;;-1.30;99.90;;;;;;4191588;28;19955;-56
2022/02/06 00:22:03;;;;;;;;;;;-1.30;99.90;;;;;;4191100;28;20292;-54
2022/02/06 00:24:06;;;;;;;;;;;-1.30;99.90;;;;;;4192353;28;19913;-49
2022/02/06 00:26:25;;;;;;;;;;;-1.30;99.90;;;;;;4190877;28;19974;-56
2022/02/06 00:30:50;;;;;;;;;;;-1.30;99.90;;;;;;4189473;28;19928;-55
2022/02/06 00:33:21;;;;;;;;;;;-1.30;99.90;;;;;;4192426;28;20621;-57
2022/02/06 00:40:05;;;;;;;;;;;-1.20;99.90;;;;;;4190570;28;20441;-54
2022/02/06 00:42:06;;;;;;;;;;;-1.20;99.90;;;;;;4191167;28;19916;-54
2022/02/06 00:44:09;;;;;;;;;;;-1.10;99.90;;;;;;4190581;28;19913;-55
2022/02/06 00:46:12;;;;;;;;;;;-1.10;99.90;;;;;;4190021;28;20334;-49
2022/02/06 00:48:18;;;;;;;;;;;-1.00;99.90;;;;;;4190840;28;19932;-49
2022/02/06 00:50:19;;;;;;;;;;;-1.00;99.90;;;;;;4185715;28;19994;-57
2022/02/06 00:52:33;;;;;;;;;;;-1.00;99.90;;;;;;4174188;28;19913;-56
2022/02/06 00:54:34;;;;;;;;;;;-1.10;99.90;;;;;;4183388;28;19916;-53
2022/02/06 00:56:34;;;;;;;;;;;-1.10;99.90;;;;;;4189978;28;19970;-55
2022/02/06 00:58:36;;;;;;;;;;;-1.10;99.90;;;;;;4191272;28;19939;-51
2022/02/06 01:00:37;;;;;;;;;;;-1.10;99.90;;;;;;4184086;28;19963;-54
2022/02/06 01:02:39;;;;;;;;;;;-1.10;99.90;;;;;;4175196;28;20373;-54
2022/02/06 01:04:41;;;;;;;;;;;-1.10;99.90;;;;;;4174095;28;20322;-51
2022/02/06 01:06:42;;;;;;;;;;;-1.20;99.90;;;;;;4176770;28;19916;-56
2022/02/06 01:08:44;;;;;;;;;;;-1.10;99.90;;;;;;4190679;28;19981;-52
2022/02/06 01:10:45;;;;;;;;;;;-1.10;99.90;;;;;;4190592;28;19920;-53
2022/02/06 01:12:53;;;;;;;;;;;-1.10;99.90;;;;;;4190929;28;19917;-55
2022/02/06 01:15:12;;;;;;;;;;;-1.10;99.90;;;;;;4173609;28;19986;-56
2022/02/06 01:17:23;;;;;;;;;;;-1.10;99.90;;;;;;4173707;28;19920;-54
2022/02/06 01:19:28;;;;;;;;;;;-1.10;99.90;;;;;;4174134;28;19913;-54
2022/02/06 01:23:47;;;;;;;;;;;-1.10;99.90;;;;;;4174162;28;20327;-52
2022/02/06 01:25:58;;;;;;;;;;;-1.10;99.90;;;;;;4183562;28;19912;-55
2022/02/06 01:28:07;;;;;;;;;;;-1.20;99.90;;;;;;4189728;28;19916;-53
2022/02/06 01:30:22;;;;;;;;;;;-1.20;99.90;;;;;;4190290;28;19969;-52
2022/02/06 01:32:31;;;;;;;;;;;-1.30;99.90;;;;;;4190628;28;19977;-51
2022/02/06 01:34:55;;;;;;;;;;;-1.30;99.90;;;;;;4190235;28;20378;-53
2022/02/06 01:41:32;;;;;;;;;;;-1.50;99.90;;;;;;4174831;28;20323;-53
2022/02/06 01:43:43;;;;;;;;;;;-1.50;99.90;;;;;;4174499;28;19994;-49
2022/02/06 02:00:40;;;;;;;;;;;-1.70;99.90;;;;;;4190345;28;19974;-50
2022/02/06 02:09:16;;;;;;;;;;;-1.80;99.90;;;;;;4177029;28;20314;-55
2022/02/06 02:25:02;;;;;;;;;;;-1.90;99.90;;;;;;4175260;28;19917;-54
2022/02/06 02:27:50;;;;;;;;;;;-1.90;99.90;;;;;;4176291;28;19908;-51
2022/02/06 02:44:35;;;;;;;;;;;-2.10;99.90;;;;;;4194090;28;19962;-51
2022/02/06 02:47:36;;;;;;;;;;;-2.30;99.90;;;;;;4194222;28;20426;-55
2022/02/06 02:49:38;;;;;;;;;;;-2.30;99.90;;;;;;4179832;28;20794;-51
2022/02/06 02:51:44;;;;;;;;;;;-2.40;99.90;;;;;;4177335;28;19921;-55
2022/02/06 02:53:53;;;;;;;;;;;-2.40;99.90;;;;;;4175643;28;20452;-53
2022/02/06 03:00:20;;;;;;;;;;;-2.50;99.90;;;;;;4193373;28;19962;-52
2022/02/06 03:02:21;;;;;;;;;;;-2.50;99.90;;;;;;4179299;28;19975;-52
2022/02/06 03:04:22;;;;;;;;;;;-2.50;99.90;;;;;;4177186;28;19916;-53
2022/02/06 03:06:23;;;;;;;;;;;-2.50;99.90;;;;;;4175985;28;19917;-53
2022/02/06 03:08:24;;;;;;;;;;;-2.50;99.90;;;;;;4176867;28;20446;-53
2022/02/06 03:10:25;;;;;;;;;;;-2.50;99.90;;;;;;4175138;28;19913;-52
2022/02/06 03:12:29;;;;;;;;;;;-2.60;99.90;;;;;;4176901;28;19912;-54
2022/02/06 03:14:41;;;;;;;;;;;-2.50;99.90;;;;;;4158068;28;19940;-56
2022/02/06 03:16:49;;;;;;;;;;;-2.50;99.90;;;;;;4177543;28;19963;-51
2022/02/06 03:19:06;;;;;;;;;;;-2.50;99.90;;;;;;4175248;28;19913;-52
2022/02/06 03:21:10;;;;;;;;;;;-2.50;99.90;;;;;;4176902;28;19924;-52
2022/02/06 03:23:13;;;;;;;;;;;-2.50;99.90;;;;;;4176253;28;19978;-53
2022/02/06 03:25:19;;;;;;;;;;;-2.50;99.90;;;;;;4181435;28;19958;-54
2022/02/06 03:27:20;;;;;;;;;;;-2.50;99.90;;;;;;4191354;28;19912;-56
2022/02/06 03:29:23;;;;;;;;;;;-2.50;99.90;;;;;;4192864;28;19914;-51
2022/02/06 03:31:24;;;;;;;;;;;-2.60;99.90;;;;;;4192073;28;20273;-55
2022/02/06 03:33:25;;;;;;;;;;;-2.60;99.90;;;;;;4192585;28;19909;-53
2022/02/06 03:35:26;;;;;;;;;;;-2.60;99.90;;;;;;4192131;28;19912;-54
2022/02/06 03:37:27;;;;;;;;;;;-2.60;99.90;;;;;;4191001;28;20812;-51
2022/02/06 03:39:29;;;;;;;;;;;-2.60;99.90;;;;;;4193313;28;19908;-53
2022/02/06 03:41:40;;;;;;;;;;;-2.60;99.90;;;;;;4186220;28;19916;-56
2022/02/06 03:44:21;;;;;;;;;;;-2.60;99.90;;;;;;4175754;28;19913;-59
2022/02/06 03:46:13;;;;;;;;;;;-2.60;99.90;;;;;;4158496;28;19971;-49
2022/02/06 03:48:19;;;;;;;;;;;-2.70;99.90;;;;;;4176063;28;19971;-49
2022/02/06 03:50:20;;;;;;;;;;;-2.70;99.90;;;;;;4175099;28;19916;-53
2022/02/06 03:52:27;;;;;;;;;;;-2.80;99.90;;;;;;4176194;28;20280;-51
2022/02/06 03:54:28;;;;;;;;;;;-2.80;99.90;;;;;;4182026;28;19962;-54
2022/02/06 03:56:30;;;;;;;;;;;-2.80;99.90;;;;;;4192742;28;19912;-56
2022/02/06 03:58:31;;;;;;;;;;;-2.80;99.90;;;;;;4191027;28;19912;-50
2022/02/06 04:00:32;;;;;;;;;;;-2.90;99.90;;;;;;4192295;28;19978;-50
2022/02/06 04:02:33;;;;;;;;;;;-3.00;99.90;;;;;;4191179;28;20684;-51
2022/02/06 04:04:34;;;;;;;;;;;-3.00;99.90;;;;;;4192823;28;19919;-52
2022/02/06 04:06:35;;;;;;;;;;;-3.00;99.90;;;;;;4191328;28;19973;-57
2022/02/06 04:08:38;;;;;;;;;;;-3.00;99.90;;;;;;4190262;28;20003;-55
2022/02/06 04:10:44;;;;;;;;;;;-3.10;99.90;;;;;;4174934;28;20629;-51
2022/02/06 04:12:46;;;;;;;;;;;-3.10;99.90;;;;;;4176691;28;19917;-53
2022/02/06 04:16:59;;;;;;;;;;;-3.10;99.90;;;;;;4175665;28;19912;-50
2022/02/06 04:19:06;;;;;;;;;;;-3.20;99.90;;;;;;4182447;28;19916;-55
2022/02/06 04:21:07;;;;;;;;;;;-3.20;99.90;;;;;;4174888;28;19962;-49
2022/02/06 04:23:09;;;;;;;;;;;-3.10;99.90;;;;;;4175141;28;19958;-47
2022/02/06 04:25:10;;;;;;;;;;;-3.20;99.90;;;;;;4186794;28;19920;-53
2022/02/06 04:27:10;;;;;;;;;;;-3.20;99.90;;;;;;4191822;28;19912;-53
2022/02/06 04:29:11;;;;;;;;;;;-3.20;99.90;;;;;;4191031;28;20268;-57
2022/02/06 04:31:12;;;;;;;;;;;-3.20;99.90;;;;;;4189836;28;19927;-52
2022/02/06 04:33:13;;;;;;;;;;;-3.30;99.90;;;;;;4190946;28;20323;-51
2022/02/06 04:35:18;;;;;;;;;;;-3.30;99.90;;;;;;4192174;28;19958;-52
2022/02/06 04:37:43;;;;;;;;;;;-3.30;99.90;;;;;;4190529;28;19912;-54
2022/02/06 04:53:03;;;;;;;;;;;-3.30;99.90;;;;;;4175733;28;19917;-49
2022/02/06 05:22:54;;;;;;;;;;;-3.60;99.90;;;;;;4155558;28;19978;-55
2022/02/06 05:33:02;;;;;;;;;;;-3.70;99.90;;;;;;4179317;28;19916;-54
2022/02/06 05:35:05;;;;;;;;;;;-3.70;99.90;;;;;;4191699;28;19916;-52
2022/02/06 05:37:05;;;;;;;;;;;-3.70;99.90;;;;;;4188414;28;19966;-54
2022/02/06 05:39:06;;;;;;;;;;;-3.70;99.90;;;;;;4190949;28;19975;-52
2022/02/06 05:41:07;;;;;;;;;;;-3.70;99.90;;;;;;4189542;28;19958;-51
2022/02/06 05:43:08;;;;;;;;;;;-3.70;99.90;;;;;;4189414;28;19916;-59
2022/02/06 05:45:11;;;;;;;;;;;-3.70;99.90;;;;;;4189704;28;19923;-53
2022/02/06 05:47:12;;;;;;;;;;;-3.80;99.90;;;;;;4189353;28;19912;-54
2022/02/06 05:49:12;;;;;;;;;;;-3.80;99.90;;;;;;4177472;28;19931;-51
2022/02/06 05:51:14;;;;;;;;;;;-3.90;99.90;;;;;;4174124;28;19956;-56
2022/02/06 05:53:16;;;;;;;;;;;-3.80;99.90;;;;;;4174717;28;20063;-54
2022/02/06 05:55:17;;;;;;;;;;;-3.80;99.90;;;;;;4173194;28;19955;-53
2022/02/06 05:57:18;;;;;;;;;;;-3.60;99.90;;;;;;4174703;28;20361;-51
2022/02/06 05:59:19;;;;;;;;;;;-3.50;99.90;;;;;;4173193;28;19917;-55
2022/02/06 06:01:20;;;;;;;;;;;-3.30;99.90;;;;;;4174494;28;19921;-54
2022/02/06 06:03:21;;;;;;;;;;;-3.00;99.90;;;;;;4173343;28;19913;-55
2022/02/06 06:05:22;;;;;;;;;;;-2.90;99.90;;;;;;4174884;28;19909;-56
2022/02/06 06:07:23;;;;;;;;;;;-2.60;99.90;;;;;;4187701;28;19916;-50
2022/02/06 06:09:24;;;;;;;;;;;-2.30;99.90;;;;;;4179202;28;20836;-49
2022/02/06 06:11:25;;;;;;;;;;;-1.90;99.90;;;;;;4173444;28;19975;-53
2022/02/06 06:13:26;;;;;;;;;;;-1.50;99.90;;;;;;4189432;28;19916;-56
2022/02/06 06:15:28;;;;;;;;;;;-1.10;99.90;;;;;;4189731;28;20368;-56
2022/02/06 06:17:29;;;;;;;;;;;-0.70;99.90;;;;;;4176234;28;19913;-54
2022/02/06 06:19:30;;;;;;;;;;;-0.30;99.90;;;;;;4173877;28;19919;-53
2022/02/06 06:21:36;;;;;;;;;;;0.10;99.90;;;;;;4172575;28;19909;-55
2022/02/06 06:23:43;;;;;;;;;;;0.50;99.90;;;;;;4173165;28;20365;-55
2022/02/06 06:25:47;;;;;;;;;;;0.80;99.90;;;;;;4181442;28;19970;-55
2022/02/06 06:27:48;;;;;;;;;;;1.00;99.90;;;;;;4183651;28;19917;-50
2022/02/06 06:29:49;;;;;;;;;;;1.30;99.90;;;;;;4189514;28;19958;-55
2022/02/06 06:31:50;;;;;;;;;;;1.70;99.90;;;;;;4190084;28;20027;-56
2022/02/06 06:33:51;;;;;;;;;;;2.00;99.90;;;;;;4189346;28;19954;-54
2022/02/06 06:35:53;;;;;;;;;;;2.50;99.90;;;;;;4190388;28;20669;-57
2022/02/06 06:37:54;;;;;;;;;;;2.90;99.90;;;;;;4186567;28;20015;-56
2022/02/06 06:39:55;;;;;;;;;;;3.20;99.90;;;;;;4174231;28;20319;-53
2022/02/06 06:41:56;;;;;;;;;;;3.50;99.90;;;;;;4172175;28;19963;-56
2022/02/06 06:43:57;;;;;;;;;;;3.60;99.90;;;;;;4155421;28;19916;-57
2022/02/06 06:45:58;;;;;;;;;;;3.70;99.90;;;;;;4172956;28;20367;-54
2022/02/06 06:47:59;;;;;;;;;;;3.80;99.90;;;;;;4175575;28;21557;-50
2022/02/06 06:50:03;;;;;;;;;;;3.70;99.90;;;;;;4189439;28;19920;-50
2022/02/06 06:52:04;;;;;;;;;;;3.70;99.90;;;;;;4188363;28;19982;-56
2022/02/06 06:54:12;;;;;;;;;;;3.80;99.90;;;;;;4192112;28;20307;-51
2022/02/06 06:56:21;;;;;;;;;;;3.90;99.90;;;;;;4191185;28;20361;-56
2022/02/06 06:58:34;;;;;;;;;;;4.20;99.90;;;;;;4183618;28;19970;-59
2022/02/06 07:00:54;;;;;;;;;;;4.60;99.90;;;;;;4175137;28;19966;-54
2022/02/06 07:02:55;;;;;;;;;;;5.00;99.90;;;;;;4175570;28;20007;-58
2022/02/06 07:04:58;;;;;;;;;;;5.20;99.90;;;;;;4176952;28;19916;-52
2022/02/06 07:06:59;;;;;;;;;;;5.20;99.90;;;;;;4176675;28;20347;-56
2022/02/06 07:09:00;;;;;;;;;;;5.30;99.90;;;;;;4175487;28;19916;-52
2022/02/06 07:11:01;;;;;;;;;;;5.30;99.90;;;;;;4176473;28;19964;-59
2022/02/06 07:13:02;;;;;;;;;;;5.60;99.90;;;;;;4175503;28;19963;-52
2022/02/06 07:15:03;;;;;;;;;;;6.10;99.90;;;;;;4190124;28;20784;-54
2022/02/06 07:17:04;;;;;;;;;;;6.20;99.70;;;;;;4190921;28;19939;-51
2022/02/06 07:19:06;;;;;;;;;;;6.20;99.90;;;;;;4192305;28;19913;-51
2022/02/06 07:21:07;;;;;;;;;;;6.50;98.90;;;;;;4191854;28;19963;-57
2022/02/06 07:23:09;;;;;;;;;;;6.80;98.10;;;;;;4192154;28;19912;-58
2022/02/06 07:25:10;;;;;;;;;;;6.10;95.40;;;;;;4180823;28;19962;-57
2022/02/06 07:27:22;;;;;;;;;;;5.30;96.40;;;;;;4192285;28;20657;-57
2022/02/06 07:29:24;;;;;;;;;;;5.00;97.90;;;;;;4176850;28;20328;-55
2022/02/06 07:31:25;;;;;;;;;;;4.20;98.30;;;;;;4175791;28;19921;-51
2022/02/06 07:33:25;;;;;;;;;;;4.10;99.80;;;;;;4189651;28;19920;-54
2022/02/06 07:35:26;;;;;;;;;;;4.40;99.90;;;;;;4192111;28;20402;-57
2022/02/06 07:37:27;;;;;;;;;;;4.70;99.80;;;;;;4191323;28;19966;-53
2022/02/06 07:39:28;;;;;;;;;;;4.80;98.50;;;;;;4191880;28;20030;-61
2022/02/06 07:41:29;;;;;;;;;;;5.00;98.70;;;;;;4178031;28;20373;-64
2022/02/06 07:43:30;;;;;;;;;;;5.10;98.00;;;;;;4175281;28;19913;-57
2022/02/06 07:45:34;;;;;;;;;;;4.60;98.70;;;;;;4176045;28;19958;-53
2022/02/06 07:47:37;;;;;;;;;;;4.10;99.30;;;;;;4174491;28;19913;-56
2022/02/06 07:49:38;;;;;;;;;;;4.30;99.90;;;;;;4175925;28;19975;-56
2022/02/06 07:51:39;;;;;;;;;;;4.70;99.90;;;;;;4175271;28;20319;-58
2022/02/06 07:53:40;;;;;;;;;;;5.30;99.10;;;;;;4176430;28;19956;-58
2022/02/06 07:55:41;;;;;;;;;;;5.70;99.00;;;;;;4175093;28;19916;-58
2022/02/06 07:57:42;;;;;;;;;;;6.10;97.90;;;;;;4175875;28;19913;-53
2022/02/06 07:59:43;;;;;;;;;;;6.50;98.40;;;;;;4175411;28;19913;-59
2022/02/06 08:01:44;;;;;;;;;;;6.90;96.60;;;;;;4175382;28;19913;-57
2022/02/06 08:03:45;;;;;;;;;;;7.40;96.40;;;;;;4190190;28;19970;-57
2022/02/06 08:05:46;;;;;;;;;;;7.70;94.00;;;;;;4189810;28;19912;-57
2022/02/06 08:07:49;;;;;;;;;;;7.90;93.60;;;;;;4191558;28;20287;-58
2022/02/06 08:09:54;;;;;;;;;;;7.30;92.70;;;;;;4173356;28;19916;-52
2022/02/06 08:11:55;;;;;;;;;;;6.30;93.90;;;;;;4176538;28;20713;-54
2022/02/06 08:13:58;;;;;;;;;;;5.40;94.90;;;;;;4174550;28;19913;-56
2022/02/06 08:16:00;;;;;;;;;;;5.00;96.20;;;;;;4175371;28;19962;-59
2022/02/06 08:18:03;;;;;;;;;;;4.70;96.90;;;;;;4174224;28;20369;-57
2022/02/06 08:20:12;;;;;;;;;;;4.60;97.60;;;;;;4175873;28;19974;-55
2022/02/06 08:22:14;;;;;;;;;;;4.30;99.20;;;;;;4175238;28;19963;-54
2022/02/06 08:24:15;;;;;;;;;;;4.10;99.20;;;;;;4175607;28;20827;-53
2022/02/06 08:26:16;;;;;;;;;;;4.20;98.80;;;;;;4186661;28;19962;-56
2022/02/06 08:28:17;;;;;;;;;;;4.20;98.50;;;;;;4191695;28;19938;-55
2022/02/06 08:30:19;;;;;;;;;;;4.00;98.30;;;;;;4190472;28;19912;-55
2022/02/06 08:32:21;;;;;;;;;;;3.70;98.10;;;;;;4181379;28;19931;-55
2022/02/06 08:34:22;;;;;;;;;;;3.50;98.30;;;;;;4173705;28;19947;-53
2022/02/06 08:36:23;;;;;;;;;;;3.40;98.50;;;;;;4174353;28;19912;-57
2022/02/06 08:38:24;;;;;;;;;;;3.20;99.70;;;;;;4173436;28;20715;-53
2022/02/06 08:40:25;;;;;;;;;;;2.90;99.90;;;;;;4181611;28;19912;-58
2022/02/06 08:42:26;;;;;;;;;;;2.70;99.90;;;;;;4190847;28;20477;-54
2022/02/06 08:44:27;;;;;;;;;;;2.60;99.90;;;;;;4188326;28;19912;-51
2022/02/06 08:46:28;;;;;;;;;;;2.40;99.90;;;;;;4185725;28;19916;-54
2022/02/06 08:48:29;;;;;;;;;;;2.40;99.90;;;;;;4187407;28;19977;-54
2022/02/06 08:50:30;;;;;;;;;;;2.40;99.90;;;;;;4178758;28;19926;-60
2022/02/06 08:52:31;;;;;;;;;;;2.40;99.90;;;;;;4173506;28;20051;-58
2022/02/06 08:54:34;;;;;;;;;;;2.40;99.90;;;;;;4182075;28;19916;-54
2022/02/06 08:56:39;;;;;;;;;;;2.40;99.90;;;;;;4173042;28;19998;-59
2022/02/06 08:58:40;;;;;;;;;;;2.40;99.90;;;;;;4174489;28;19970;-60
2022/02/06 09:00:41;;;;;;;;;;;2.30;99.90;;;;;;4178386;28;19987;-59
2022/02/06 09:02:42;;;;;;;;;;;2.10;99.90;;;;;;4173173;28;19920;-61
2022/02/06 09:04:44;;;;;;;;;;;2.10;99.90;;;;;;4158840;28;20452;-57
2022/02/06 09:06:45;;;;;;;;;;;2.10;99.90;;;;;;4178538;28;19921;-59
2022/02/06 09:08:53;;;;;;;;;;;2.10;99.90;;;;;;4178432;28;19920;-56
2022/02/06 09:10:54;;;;;;;;;;;2.30;99.90;;;;;;4177098;28;20331;-62
2022/02/06 09:12:55;;;;;;;;;;;2.20;99.90;;;;;;4174081;28;19975;-60
2022/02/06 09:14:56;;;;;;;;;;;2.20;99.90;;;;;;4184502;28;19913;-61
2022/02/06 09:16:57;;;;;;;;;;;2.20;99.90;;;;;;4174999;28;20385;-57
2022/02/06 09:18:59;;;;;;;;;;;2.20;99.90;;;;;;4179246;28;19917;-56
2022/02/06 09:21:00;;;;;;;;;;;2.20;99.90;;;;;;4177342;28;20426;-58
2022/02/06 09:23:02;;;;;;;;;;;2.30;99.90;;;;;;4176165;28;19921;-56
2022/02/06 09:25:03;;;;;;;;;;;2.30;99.90;;;;;;4176445;28;19939;-56
2022/02/06 09:27:05;;;;;;;;;;;2.50;99.90;;;;;;4173131;28;19920;-59
2022/02/06 09:29:06;;;;;;;;;;;2.70;99.90;;;;;;4182252;28;20386;-53
2022/02/06 09:31:09;;;;;;;;;;;2.90;99.90;;;;;;4176341;28;19920;-59
2022/02/06 09:35:11;;;;;;;;;;;3.20;99.90;;;;;;4173046;28;19920;-57
2022/02/06 09:37:12;;;;;;;;;;;3.40;99.90;;;;;;4177692;28;19916;-51
2022/02/06 09:39:13;;;;;;;;;;;3.40;99.90;;;;;;4177769;28;19993;-56
2022/02/06 09:41:15;;;;;;;;;;;3.50;99.90;;;;;;4174935;28;19970;-56
2022/02/06 09:43:16;;;;;;;;;;;3.40;99.90;;;;;;4178893;28;20208;-52
2022/02/06 09:45:17;;;;;;;;;;;3.50;99.90;;;;;;4182018;28;20414;-56
2022/02/06 09:47:28;;;;;;;;;;;3.60;99.90;;;;;;4175685;28;20331;-54
2022/02/06 09:49:30;;;;;;;;;;;3.70;99.90;;;;;;4176396;28;19974;-57
2022/02/06 09:51:32;;;;;;;;;;;3.80;99.90;;;;;;4178586;28;19943;-57
2022/02/06 09:53:34;;;;;;;;;;;3.80;99.90;;;;;;4171538;28;19924;-55
2022/02/06 09:55:36;;;;;;;;;;;3.90;99.90;;;;;;4177898;28;20327;-59
2022/02/06 09:59:58;;;;;;;;;;;4.10;99.90;;;;;;4181239;28;19977;-57
2022/02/06 10:01:59;;;;;;;;;;;4.20;99.90;;;;;;4177433;28;19932;-55
2022/02/06 10:04:06;;;;;;;;;;;4.40;99.90;;;;;;4173609;28;19912;-54
2022/02/06 10:06:09;;;;;;;;;;;4.40;99.60;;;;;;4164233;28;19970;-59
2022/02/06 10:08:16;;;;;;;;;;;4.40;99.40;;;;;;4180919;28;19920;-53
2022/02/06 10:10:18;;;;;;;;;;;4.40;99.70;;;;;;4177729;28;21864;-58
2022/02/06 10:12:20;;;;;;;;;;;4.50;99.90;;;;;;4177444;28;19928;-56
2022/02/06 10:14:21;;;;;;;;;;;4.50;99.80;;;;;;4179168;28;19924;-56
2022/02/06 10:16:23;;;;;;;;;;;4.60;99.50;;;;;;4177182;28;19916;-58
2022/02/06 10:18:25;;;;;;;;;;;4.60;99.30;;;;;;4174051;28;19921;-57
2022/02/06 10:20:32;;;;;;;;;;;4.70;99.60;;;;;;4178575;28;19921;-54
2022/02/06 10:22:41;;;;;;;;;;;4.80;99.60;;;;;;4176516;28;19962;-58
2022/02/06 10:24:44;;;;;;;;;;;4.90;99.90;;;;;;4179268;28;19920;-57
2022/02/06 10:31:24;;;;;;;;;;;5.20;99.90;;;;;;4187462;28;19939;-57
2022/02/06 10:33:41;;;;;;;;;;;5.20;99.50;;;;;;4176476;28;19978;-55
2022/02/06 10:35:43;;;;;;;;;;;5.30;99.90;;;;;;4175240;28;19967;-54
2022/02/06 10:37:44;;;;;;;;;;;5.40;99.70;;;;;;4187569;28;19958;-55
2022/02/06 10:39:59;;;;;;;;;;;5.40;99.60;;;;;;4190900;28;19924;-55
2022/02/06 10:42:00;;;;;;;;;;;5.40;99.10;;;;;;4192419;28;19966;-57
2022/02/06 10:44:05;;;;;;;;;;;5.60;98.60;;;;;;4192118;28;20288;-57
2022/02/06 10:46:11;;;;;;;;;;;5.60;98.30;;;;;;4191166;28;19946;-54
2022/02/06 10:48:23;;;;;;;;;;;5.70;98.30;;;;;;4191964;28;19981;-58
2022/02/06 10:50:25;;;;;;;;;;;5.70;97.90;;;;;;4191958;28;20016;-57
2022/02/06 10:52:26;;;;;;;;;;;5.80;97.80;;;;;;4192044;28;19947;-59
2022/02/06 10:54:27;;;;;;;;;;;5.80;98.40;;;;;;4185942;28;19991;-53
2022/02/06 10:56:28;;;;;;;;;;;5.80;98.80;;;;;;4174999;28;20388;-61
2022/02/06 10:58:31;;;;;;;;;;;5.80;98.40;;;;;;4175380;28;19913;-57
2022/02/06 11:00:33;;;;;;;;;;;5.90;96.80;;;;;;4180489;28;20420;-59
2022/02/06 11:02:36;;;;;;;;;;;5.90;96.60;;;;;;4188466;28;20338;-59
2022/02/06 11:04:44;;;;;;;;;;;5.90;96.20;;;;;;4205910;28;20014;-58
2022/02/06 11:07:03;;;;;;;;;;;5.90;96.10;;;;;;4190222;28;20414;-55
2022/02/06 11:09:04;;;;;;;;;;;6.00;96.40;;;;;;4192660;28;19920;-57
2022/02/06 11:11:06;;;;;;;;;;;6.20;96.60;;;;;;4190483;28;20364;-62
2022/02/06 11:13:08;;;;;;;;;;;6.30;96.70;;;;;;4192012;28;19966;-55
2022/02/06 11:15:26;;;;;;;;;;;6.40;95.40;;;;;;4191048;28;19912;-59
2022/02/06 11:17:30;;;;;;;;;;;6.40;95.20;;;;;;4189801;28;19920;-57
2022/02/06 11:19:31;;;;;;;;;;;6.50;94.40;;;;;;4186327;28;20368;-52
2022/02/06 11:21:33;;;;;;;;;;;6.50;95.00;;;;;;4176487;28;19990;-60
2022/02/06 11:23:37;;;;;;;;;;;6.50;93.40;;;;;;4174654;28;19908;-57
2022/02/06 11:25:38;;;;;;;;;;;6.50;93.30;;;;;;4182988;28;19962;-61
2022/02/06 11:27:39;;;;;;;;;;;6.40;93.00;;;;;;4174009;28;19917;-61
2022/02/06 11:29:40;;;;;;;;;;;6.50;93.90;;;;;;4176109;28;20036;-59
2022/02/06 11:31:41;;;;;;;;;;;6.60;93.20;;;;;;4174041;28;20071;-56
2022/02/06 11:33:42;;;;;;;;;;;6.70;93.00;;;;;;4176244;28;19928;-58
2022/02/06 11:35:52;;;;;;;;;;;6.80;94.00;;;;;;4175216;28;19916;-59
2022/02/06 11:45:29;;;;;;;;;;;7.20;92.10;;;;;;4191109;28;20057;-56
2022/02/06 11:47:32;;;;;;;;;;;7.40;92.00;;;;;;4192281;28;19920;-56
2022/02/06 11:49:37;;;;;;;;;;;7.40;91.30;;;;;;4189922;28;19924;-62
2022/02/06 11:51:48;;;;;;;;;;;7.40;90.70;;;;;;4175250;28;19975;-50
2022/02/06 11:53:49;;;;;;;;;;;7.50;90.60;;;;;;4174447;28;20376;-53
2022/02/06 11:55:51;;;;;;;;;;;7.40;92.90;;;;;;4175312;28;19917;-58
2022/02/06 11:58:12;;;;;;;;;;;7.40;93.30;;;;;;4175587;28;20793;-55
2022/02/06 12:00:14;;;;;;;;;;;7.50;92.10;;;;;;4174930;28;19925;-57
2022/02/06 12:02:24;;;;;;;;;;;7.40;90.80;;;;;;4180801;28;20353;-55
2022/02/06 12:04:27;;;;;;;;;;;7.40;91.00;;;;;;4192379;28;19969;-58
2022/02/06 12:06:30;;;;;;;;;;;7.40;90.70;;;;;;4190628;28;20376;-62
2022/02/06 12:08:31;;;;;;;;;;;7.40;91.00;;;;;;4190953;28;19958;-55
2022/02/06 12:10:32;;;;;;;;;;;7.50;91.00;;;;;;4179732;28;20430;-51
2022/02/06 12:12:33;;;;;;;;;;;7.60;90.40;;;;;;4182251;28;19920;-57
2022/02/06 12:14:40;;;;;;;;;;;7.70;90.40;;;;;;4174592;28;20502;-63
2022/02/06 12:16:51;;;;;;;;;;;7.60;94.10;;;;;;4177701;28;19971;-55
2022/02/06 12:18:52;;;;;;;;;;;7.40;90.50;;;;;;4173960;28;19978;-53
2022/02/06 12:20:55;;;;;;;;;;;7.20;90.70;;;;;;4174189;28;19921;-53
2022/02/06 12:22:56;;;;;;;;;;;7.10;90.50;;;;;;4174420;28;20584;-53
2022/02/06 12:25:16;;;;;;;;;;;7.10;90.60;;;;;;4176540;28;19966;-51
2022/02/06 12:27:21;;;;;;;;;;;7.00;90.50;;;;;;4189192;28;19916;-57
2022/02/06 12:29:22;;;;;;;;;;;7.00;91.00;;;;;;4190473;28;20364;-50
2022/02/06 12:31:28;;;;;;;;;;;6.90;91.70;;;;;;4178491;28;20678;-57
2022/02/06 12:33:42;;;;;;;;;;;6.80;91.90;;;;;;4172709;28;20354;-50
2022/02/06 12:38:05;;;;;;;;;;;6.70;91.80;;;;;;4174184;28;19940;-50
2022/02/06 12:40:16;;;;;;;;;;;6.70;91.40;;;;;;4174976;28;19921;-58
2022/02/06 12:42:24;;;;;;;;;;;6.60;90.50;;;;;;4173557;28;19912;-53
2022/02/06 12:44:26;;;;;;;;;;;6.70;90.50;;;;;;4173985;28;19975;-52
2022/02/06 12:46:29;;;;;;;;;;;6.70;90.00;;;;;;4176750;28;19988;-53
2022/02/06 12:48:31;;;;;;;;;;;6.80;90.10;;;;;;4189696;28;19993;-53
2022/02/06 12:50:33;;;;;;;;;;;7.10;90.10;;;;;;4189235;28;19912;-49
2022/02/06 12:52:35;;;;;;;;;;;7.10;89.40;;;;;;4190110;28;20009;-56
2022/02/06 12:54:36;;;;;;;;;;;7.20;90.20;;;;;;4189774;28;19966;-55
2022/02/06 12:56:38;;;;;;;;;;;7.30;89.40;;;;;;4188611;28;19917;-56
2022/02/06 12:58:46;;;;;;;;;;;7.30;89.40;;;;;;4189159;28;20804;-61
2022/02/06 13:00:50;;;;;;;;;;;7.40;88.50;;;;;;4190831;28;19974;-59
2022/02/06 13:02:52;;;;;;;;;;;7.40;89.00;;;;;;4189655;28;19917;-57
2022/02/06 13:04:59;;;;;;;;;;;7.30;87.20;;;;;;4176566;28;19916;-58
2022/02/06 13:07:02;;;;;;;;;;;7.30;87.60;;;;;;4173320;28;19917;-60
2022/02/06 13:09:08;;;;;;;;;;;7.30;87.70;;;;;;4174813;28;19982;-52
2022/02/06 13:11:15;;;;;;;;;;;7.30;86.80;;;;;;4179516;28;19916;-59
2022/02/06 13:13:19;;;;;;;;;;;7.30;86.40;;;;;;4186527;28;19928;-53
2022/02/06 13:15:49;;;;;;;;;;;7.30;86.20;;;;;;4175724;28;19917;-54
2022/02/06 13:18:20;;;;;;;;;;;7.20;87.30;;;;;;4173782;28;19971;-59
2022/02/06 13:25:18;;;;;;;;;;;6.90;88.70;;;;;;4150721;28;19970;-57
2022/02/06 13:34:02;;;;;;;;;;;6.70;88.80;;;;;;4189513;28;19920;-52
2022/02/06 13:36:06;;;;;;;;;;;6.60;89.30;;;;;;4178229;28;19916;-50
2022/02/06 13:38:15;;;;;;;;;;;6.60;89.60;;;;;;4188944;28;19921;-62
2022/02/06 13:40:19;;;;;;;;;;;6.60;89.20;;;;;;4190749;28;19917;-57
2022/02/06 13:42:27;;;;;;;;;;;6.50;88.90;;;;;;4183867;28;19917;-57
2022/02/06 13:44:27;;;;;;;;;;;6.50;89.20;;;;;;4188616;28;20303;-60
2022/02/06 13:46:31;;;;;;;;;;;6.50;89.40;;;;;;4173243;28;19917;-54
2022/02/06 13:48:32;;;;;;;;;;;6.40;89.60;;;;;;4188078;28;19994;-55
2022/02/06 13:50:35;;;;;;;;;;;6.50;90.00;;;;;;4188220;28;19913;-52
2022/02/06 13:52:43;;;;;;;;;;;6.40;89.90;;;;;;4189945;28;20301;-59
2022/02/06 13:54:49;;;;;;;;;;;6.30;90.00;;;;;;4187375;28;19935;-54
2022/02/06 13:56:56;;;;;;;;;;;6.30;89.90;;;;;;4187904;28;19966;-57
2022/02/06 13:59:07;;;;;;;;;;;6.20;90.00;;;;;;4189757;28;20365;-54
2022/02/06 14:01:09;;;;;;;;;;;6.10;90.30;;;;;;4181972;28;20311;-53
2022/02/06 14:03:10;;;;;;;;;;;6.00;90.30;;;;;;4171795;28;19967;-57
2022/02/06 14:05:11;;;;;;;;;;;5.90;90.40;;;;;;4173361;28;19943;-54
2022/02/06 14:07:16;;;;;;;;;;;5.90;90.80;;;;;;4172118;28;19912;-58
2022/02/06 14:09:29;;;;;;;;;;;5.80;90.70;;;;;;4174772;28;20338;-60
2022/02/06 14:11:32;;;;;;;;;;;5.70;90.80;;;;;;4172027;28;20415;-63
2022/02/06 14:13:33;;;;;;;;;;;5.70;91.00;;;;;;4173273;28;19987;-56
2022/02/06 14:15:34;;;;;;;;;;;5.60;91.10;;;;;;4182440;28;19955;-54
2022/02/06 14:17:38;;;;;;;;;;;5.60;91.30;;;;;;4189378;28;19982;-55
2022/02/06 14:19:42;;;;;;;;;;;5.50;91.40;;;;;;4188842;28;19921;-55
2022/02/06 14:21:44;;;;;;;;;;;5.40;91.50;;;;;;4188339;28;20796;-53
2022/02/06 14:24:01;;;;;;;;;;;5.40;91.60;;;;;;4190401;28;19966;-55
2022/02/06 14:26:09;;;;;;;;;;;5.40;91.90;;;;;;4181759;28;19913;-54
2022/02/06 14:28:16;;;;;;;;;;;5.30;92.00;;;;;;4173319;28;19917;-56
2022/02/06 14:30:22;;;;;;;;;;;5.30;92.10;;;;;;4172891;28;19975;-56
2022/02/06 14:32:24;;;;;;;;;;;5.20;92.30;;;;;;4189193;28;19916;-60
2022/02/06 14:34:25;;;;;;;;;;;5.20;92.50;;;;;;4187914;28;19974;-56
2022/02/06 14:36:26;;;;;;;;;;;5.20;92.70;;;;;;4181118;28;20051;-56
2022/02/06 14:38:35;;;;;;;;;;;5.20;92.80;;;;;;4170754;28;19952;-56
2022/02/06 14:42:48;;;;;;;;;;;5.20;93.00;;;;;;4188054;28;20049;-53